Terminal Aerodrome Forecast
Issued by NWS

Home | Current Version | Previous Version | Text Only | Print | Product List | Glossary On
Versions: 1 2 3 4 5 6 7 8 9 10 11 12 13 14 15 16 17 18 19 20 21 22 23 24 25 26 27 28 29 30 31 32 33 34
526
FTAK31 PAFA 240015 AAA
TAFASC
TAF AMD
PASC 240015Z 2400/2424 25019KT 3/4SM -SN BLSN BR BKN015 OVC120
      TEMPO 2400/2404 1/2SM SN BLSN FZFG OVC014
     FM240600 25020G25KT 1SM -SN BLSN VV017
     FM241200 24021KT 1 1/2SM -SN BR OVC019
     FM242000 24025G35KT 1/4SM SN BLSN OVC015=

USA.gov is the U.S. government's official web portal to all federal, state and local government web resources and services.